PWSweather.com
Personal Weather Stations
Station Observations
KMIEASTT1
Tawas Bay, East Tawas, MI 48730

Tawas BayEast Tawas, MI 48730

Lat: 44.28, Lon: -83.48

Elevation: 600

Station Type: Davis VantagePro

http://www.tawasbayweather.com

High Low Average
Temperature 38.0°F3.3°C 31.9°F-0.1°C 34.9°F1.6°C
Dew Point 33.6°F0.9°C 28.8°F-1.8°C 31.5°F-0.3°C
Winds 14.0 mph 22.5 kmh Calm Calm 3.0 mph SW4.8 kmh SW
Wind Gusts 18.0 mph29.0 kmh 3.0 mph4.8 kmh 9.0 mph14.5 kmh
Humidity 93% 80% 87%
Pressure 30.10 in1019.3 mb 29.82 in1009.8 mb -
Precipitation 0.00 in0.0 mm - -
Hour Temp Dew Point Humidity Winds Wind Gusts Pressure Precip Precip Rate Daily Precip Total
12:01 AM 31.1°F-0.5°C 28.8°F-1.8°C 91% 2.0 mph NW3.2 kmh NW 4.0 mph6.4 kmh 30.06 in1017.9 mb 0.00 in0.0 mm 0.00 in/hr0.0 mm/hr 0.00 in0.0 mm
12:15 AM 31.3°F-0.4°C 28.7°F-1.8°C 90% 3.0 mph NW4.8 kmh NW 4.0 mph6.4 kmh 30.07 in1018.3 mb 0.00 in0.0 mm 0.00 in/hr0.0 mm/hr 0.00 in0.0 mm
12:30 AM 31.5°F-0.3°C 28.9°F-1.7°C 90% 1.0 mph NW1.6 kmh NW 4.0 mph6.4 kmh 30.08 in1018.6 mb 0.00 in0.0 mm 0.00 in/hr0.0 mm/hr 0.00 in0.0 mm
12:45 AM 31.8°F-0.1°C 29.2°F-1.6°C 90% 2.0 mph NW3.2 kmh NW 5.0 mph8.0 kmh 30.08 in1018.6 mb 0.00 in0.0 mm 0.00 in/hr0.0 mm/hr 0.00 in0.0 mm
01:01 AM 32.0°F0.0°C 29.1°F-1.6°C 89% 2.0 mph N3.2 kmh N 5.0 mph8.0 kmh 30.08 in1018.6 mb 0.00 in0.0 mm 0.00 in/hr0.0 mm/hr 0.00 in0.0 mm
01:15 AM 32.0°F0.0°C 29.1°F-1.6°C 89% 3.0 mph NNW4.8 kmh NNW 5.0 mph8.0 kmh 30.07 in1018.3 mb 0.00 in0.0 mm 0.00 in/hr0.0 mm/hr 0.00 in0.0 mm
01:30 AM 32.0°F0.0°C 29.1°F-1.6°C 89% 2.0 mph NNW3.2 kmh NNW 3.0 mph4.8 kmh 30.06 in1017.9 mb 0.00 in0.0 mm 0.00 in/hr0.0 mm/hr 0.00 in0.0 mm
01:46 AM 32.1°F0.1°C 29.2°F-1.6°C 89% 2.0 mph NNW3.2 kmh NNW 4.0 mph6.4 kmh 30.06 in1017.9 mb 0.00 in0.0 mm 0.00 in/hr0.0 mm/hr 0.00 in0.0 mm
02:01 AM 32.3°F0.2°C 29.4°F-1.4°C 89% 5.0 mph NNW8.0 kmh NNW 5.0 mph8.0 kmh 30.05 in1017.6 mb 0.00 in0.0 mm 0.00 in/hr0.0 mm/hr 0.00 in0.0 mm
02:15 AM 32.4°F0.2°C 29.5°F-1.4°C 89% 3.0 mph N4.8 kmh N 5.0 mph8.0 kmh 30.05 in1017.6 mb 0.00 in0.0 mm 0.00 in/hr0.0 mm/hr 0.00 in0.0 mm
02:31 AM 32.4°F0.2°C 29.3°F-1.5°C 88% 3.0 mph NNW4.8 kmh NNW 6.0 mph9.7 kmh 30.05 in1017.6 mb 0.00 in0.0 mm 0.00 in/hr0.0 mm/hr 0.00 in0.0 mm
02:45 AM 32.5°F0.3°C 29.4°F-1.4°C 88% 1.0 mph N1.6 kmh N 3.0 mph4.8 kmh 30.05 in1017.6 mb 0.00 in0.0 mm 0.00 in/hr0.0 mm/hr 0.00 in0.0 mm
03:01 AM 32.5°F0.3°C 29.4°F-1.4°C 88% 2.0 mph NNW3.2 kmh NNW 3.0 mph4.8 kmh 30.06 in1017.9 mb 0.00 in0.0 mm 0.00 in/hr0.0 mm/hr 0.00 in0.0 mm
03:15 AM 32.4°F0.2°C 29.3°F-1.5°C 88% 1.0 mph E1.6 kmh E 7.0 mph11.3 kmh 30.06 in1017.9 mb 0.00 in0.0 mm 0.00 in/hr0.0 mm/hr 0.00 in0.0 mm
03:30 AM 32.3°F0.2°C 29.2°F-1.6°C 88% 3.0 mph NW4.8 kmh NW 7.0 mph11.3 kmh 30.08 in1018.6 mb 0.00 in0.0 mm 0.00 in/hr0.0 mm/hr 0.00 in0.0 mm
03:45 AM 32.3°F0.2°C 29.2°F-1.6°C 88% 3.0 mph N4.8 kmh N 4.0 mph6.4 kmh 30.08 in1018.6 mb 0.00 in0.0 mm 0.00 in/hr0.0 mm/hr 0.00 in0.0 mm
04:01 AM 32.2°F0.1°C 29.1°F-1.6°C 88% 3.0 mph NNW4.8 kmh NNW 6.0 mph9.7 kmh 30.09 in1019.0 mb 0.00 in0.0 mm 0.00 in/hr0.0 mm/hr 0.00 in0.0 mm
04:15 AM 32.1°F0.1°C 29.0°F-1.7°C 88% 5.0 mph NNW8.0 kmh NNW 6.0 mph9.7 kmh 30.10 in1019.3 mb 0.00 in0.0 mm 0.00 in/hr0.0 mm/hr 0.00 in0.0 mm
04:30 AM 32.0°F0.0°C 28.9°F-1.7°C 88% 7.0 mph NNW11.3 kmh NNW 7.0 mph11.3 kmh 30.08 in1018.6 mb 0.00 in0.0 mm 0.00 in/hr0.0 mm/hr 0.00 in0.0 mm
04:45 AM 31.9°F-0.1°C 28.8°F-1.8°C 88% 3.0 mph NW4.8 kmh NW 6.0 mph9.7 kmh 30.07 in1018.3 mb 0.00 in0.0 mm 0.00 in/hr0.0 mm/hr 0.00 in0.0 mm
05:00 AM 32.0°F0.0°C 28.9°F-1.7°C 88% 5.0 mph NW8.0 kmh NW 8.0 mph12.9 kmh 30.05 in1017.6 mb 0.00 in0.0 mm 0.00 in/hr0.0 mm/hr 0.00 in0.0 mm
05:15 AM 32.3°F0.2°C 28.9°F-1.7°C 87% 2.0 mph NW3.2 kmh NW 10.0 mph16.1 kmh 30.03 in1016.9 mb 0.00 in0.0 mm 0.00 in/hr0.0 mm/hr 0.00 in0.0 mm
05:30 AM 32.7°F0.4°C 29.3°F-1.5°C 87% Calm Calm 8.0 mph12.9 kmh 30.03 in1016.9 mb 0.00 in0.0 mm 0.00 in/hr0.0 mm/hr 0.00 in0.0 mm
05:45 AM 33.2°F0.7°C 29.5°F-1.4°C 86% 4.0 mph WNW6.4 kmh WNW 9.0 mph14.5 kmh 30.03 in1016.9 mb 0.00 in0.0 mm 0.00 in/hr0.0 mm/hr 0.00 in0.0 mm
06:01 AM 33.3°F0.7°C 29.6°F-1.3°C 86% 2.0 mph NW3.2 kmh NW 6.0 mph9.7 kmh 30.04 in1017.3 mb 0.00 in0.0 mm 0.00 in/hr0.0 mm/hr 0.00 in0.0 mm
06:15 AM 33.1°F0.6°C 29.4°F-1.4°C 86% 2.0 mph NNW3.2 kmh NNW 7.0 mph11.3 kmh 30.05 in1017.6 mb 0.00 in0.0 mm 0.00 in/hr0.0 mm/hr 0.00 in0.0 mm
06:30 AM 33.1°F0.6°C 29.4°F-1.4°C 86% 3.0 mph NNW4.8 kmh NNW 7.0 mph11.3 kmh 30.04 in1017.3 mb 0.00 in0.0 mm 0.00 in/hr0.0 mm/hr 0.00 in0.0 mm
06:45 AM 33.2°F0.7°C 29.8°F-1.2°C 87% 3.0 mph NE4.8 kmh NE 5.0 mph8.0 kmh 30.03 in1016.9 mb 0.00 in0.0 mm 0.00 in/hr0.0 mm/hr 0.00 in0.0 mm
07:01 AM 33.8°F1.0°C 30.4°F-0.9°C 87% 3.0 mph N4.8 kmh N 9.0 mph14.5 kmh 30.04 in1017.3 mb 0.00 in0.0 mm 0.00 in/hr0.0 mm/hr 0.00 in0.0 mm
07:15 AM 34.1°F1.2°C 30.6°F-0.8°C 87% 2.0 mph NNW3.2 kmh NNW 7.0 mph11.3 kmh 30.05 in1017.6 mb 0.00 in0.0 mm 0.00 in/hr0.0 mm/hr 0.00 in0.0 mm
07:30 AM 34.3°F1.3°C 30.8°F-0.7°C 87% Calm Calm 7.0 mph11.3 kmh 30.03 in1016.9 mb 0.00 in0.0 mm 0.00 in/hr0.0 mm/hr 0.00 in0.0 mm
07:45 AM 34.4°F1.3°C 30.9°F-0.6°C 87% 1.0 mph N1.6 kmh N 8.0 mph12.9 kmh 30.03 in1016.9 mb 0.00 in0.0 mm 0.00 in/hr0.0 mm/hr 0.00 in0.0 mm
08:01 AM 34.7°F1.5°C 31.2°F-0.4°C 87% 2.0 mph SSW3.2 kmh SSW 6.0 mph9.7 kmh 30.02 in1016.6 mb 0.00 in0.0 mm 0.00 in/hr0.0 mm/hr 0.00 in0.0 mm
08:15 AM 34.8°F1.6°C 31.3°F-0.4°C 87% 4.0 mph NW6.4 kmh NW 7.0 mph11.3 kmh 30.03 in1016.9 mb 0.00 in0.0 mm 0.00 in/hr0.0 mm/hr 0.00 in0.0 mm
08:30 AM 35.0°F1.7°C 31.5°F-0.3°C 87% 2.0 mph NNW3.2 kmh NNW 6.0 mph9.7 kmh 30.04 in1017.3 mb 0.00 in0.0 mm 0.00 in/hr0.0 mm/hr 0.00 in0.0 mm
08:45 AM 35.1°F1.7°C 31.6°F-0.2°C 87% 2.0 mph NNW3.2 kmh NNW 7.0 mph11.3 kmh 30.04 in1017.3 mb 0.00 in0.0 mm 0.00 in/hr0.0 mm/hr 0.00 in0.0 mm
09:01 AM 35.1°F1.7°C 31.6°F-0.2°C 87% 3.0 mph NE4.8 kmh NE 10.0 mph16.1 kmh 30.02 in1016.6 mb 0.00 in0.0 mm 0.00 in/hr0.0 mm/hr 0.00 in0.0 mm
09:16 AM 35.0°F1.7°C 31.8°F-0.1°C 88% 2.0 mph N3.2 kmh N 6.0 mph9.7 kmh 30.02 in1016.6 mb 0.00 in0.0 mm 0.00 in/hr0.0 mm/hr 0.00 in0.0 mm
09:31 AM 35.0°F1.7°C 31.8°F-0.1°C 88% 5.0 mph N8.0 kmh N 7.0 mph11.3 kmh 30.02 in1016.6 mb 0.00 in0.0 mm 0.00 in/hr0.0 mm/hr 0.00 in0.0 mm
09:46 AM 35.2°F1.8°C 32.3°F0.2°C 89% 4.0 mph NW6.4 kmh NW 7.0 mph11.3 kmh 30.03 in1016.9 mb 0.00 in0.0 mm 0.00 in/hr0.0 mm/hr 0.00 in0.0 mm
10:01 AM 35.4°F1.9°C 32.5°F0.3°C 89% 3.0 mph NNW4.8 kmh NNW 5.0 mph8.0 kmh 30.04 in1017.3 mb 0.00 in0.0 mm 0.00 in/hr0.0 mm/hr 0.00 in0.0 mm
10:16 AM 35.7°F2.1°C 32.5°F0.3°C 88% 3.0 mph NNW4.8 kmh NNW 4.0 mph6.4 kmh 30.04 in1017.3 mb 0.00 in0.0 mm 0.00 in/hr0.0 mm/hr 0.00 in0.0 mm
10:30 AM 36.1°F2.3°C 32.6°F0.3°C 87% 5.0 mph N8.0 kmh N 9.0 mph14.5 kmh 30.01 in1016.3 mb 0.00 in0.0 mm 0.00 in/hr0.0 mm/hr 0.00 in0.0 mm
10:46 AM 37.1°F2.8°C 32.4°F0.2°C 83% 1.0 mph NNW1.6 kmh NNW 9.0 mph14.5 kmh 30.01 in1016.3 mb 0.00 in0.0 mm 0.00 in/hr0.0 mm/hr 0.00 in0.0 mm
11:02 AM 37.8°F3.2°C 32.8°F0.4°C 82% 4.0 mph N6.4 kmh N 13.0 mph20.9 kmh 30.02 in1016.6 mb 0.00 in0.0 mm 0.00 in/hr0.0 mm/hr 0.00 in0.0 mm
11:15 AM 37.9°F3.3°C 32.3°F0.2°C 80% 8.0 mph E12.9 kmh E 11.0 mph17.7 kmh 30.01 in1016.3 mb 0.00 in0.0 mm 0.00 in/hr0.0 mm/hr 0.00 in0.0 mm
11:31 AM 37.8°F3.2°C 32.5°F0.3°C 81% 2.0 mph E3.2 kmh E 16.0 mph25.7 kmh 30.01 in1016.3 mb 0.00 in0.0 mm 0.00 in/hr0.0 mm/hr 0.00 in0.0 mm
11:45 AM 37.8°F3.2°C 32.5°F0.3°C 81% 3.0 mph NNE4.8 kmh NNE 15.0 mph24.1 kmh 30.01 in1016.3 mb 0.00 in0.0 mm 0.00 in/hr0.0 mm/hr 0.00 in0.0 mm
12:01 PM 37.8°F3.2°C 32.5°F0.3°C 81% 3.0 mph N4.8 kmh N 13.0 mph20.9 kmh 30.00 in1015.9 mb 0.00 in0.0 mm 0.00 in/hr0.0 mm/hr 0.00 in0.0 mm
12:15 PM 37.8°F3.2°C 32.2°F0.1°C 80% 2.0 mph N3.2 kmh N 12.0 mph19.3 kmh 30.01 in1016.3 mb 0.00 in0.0 mm 0.00 in/hr0.0 mm/hr 0.00 in0.0 mm
12:31 PM 37.8°F3.2°C 32.2°F0.1°C 80% 3.0 mph N4.8 kmh N 12.0 mph19.3 kmh 30.01 in1016.3 mb 0.00 in0.0 mm 0.00 in/hr0.0 mm/hr 0.00 in0.0 mm
12:45 PM 37.8°F3.2°C 32.2°F0.1°C 80% 3.0 mph N4.8 kmh N 18.0 mph29.0 kmh 30.00 in1015.9 mb 0.00 in0.0 mm 0.00 in/hr0.0 mm/hr 0.00 in0.0 mm
01:01 PM 37.8°F3.2°C 32.5°F0.3°C 81% 4.0 mph NW6.4 kmh NW 12.0 mph19.3 kmh 29.98 in1015.2 mb 0.00 in0.0 mm 0.00 in/hr0.0 mm/hr 0.00 in0.0 mm
01:15 PM 37.8°F3.2°C 32.5°F0.3°C 81% 2.0 mph N3.2 kmh N 9.0 mph14.5 kmh 29.98 in1015.2 mb 0.00 in0.0 mm 0.00 in/hr0.0 mm/hr 0.00 in0.0 mm
01:30 PM 37.9°F3.3°C 32.6°F0.3°C 81% 3.0 mph NNW4.8 kmh NNW 11.0 mph17.7 kmh 29.96 in1014.6 mb 0.00 in0.0 mm 0.00 in/hr0.0 mm/hr 0.00 in0.0 mm
01:46 PM 38.0°F3.3°C 32.4°F0.2°C 80% 7.0 mph SE11.3 kmh SE 13.0 mph20.9 kmh 29.96 in1014.6 mb 0.00 in0.0 mm 0.00 in/hr0.0 mm/hr 0.00 in0.0 mm
02:01 PM 37.8°F3.2°C 32.8°F0.4°C 82% 4.0 mph WNW6.4 kmh WNW 14.0 mph22.5 kmh 29.94 in1013.9 mb 0.00 in0.0 mm 0.00 in/hr0.0 mm/hr 0.00 in0.0 mm
02:16 PM 36.9°F2.7°C 33.1°F0.6°C 86% 5.0 mph NE8.0 kmh NE 11.0 mph17.7 kmh 29.93 in1013.5 mb 0.00 in0.0 mm 0.00 in/hr0.0 mm/hr 0.00 in0.0 mm
02:31 PM 36.4°F2.4°C 33.2°F0.7°C 88% 2.0 mph N3.2 kmh N 11.0 mph17.7 kmh 29.93 in1013.5 mb 0.00 in0.0 mm 0.00 in/hr0.0 mm/hr 0.00 in0.0 mm
02:46 PM 36.3°F2.4°C 33.4°F0.8°C 89% 2.0 mph ENE3.2 kmh ENE 8.0 mph12.9 kmh 29.92 in1013.2 mb 0.00 in0.0 mm 0.00 in/hr0.0 mm/hr 0.00 in0.0 mm
03:01 PM 36.2°F2.3°C 33.3°F0.7°C 89% 2.0 mph S3.2 kmh S 11.0 mph17.7 kmh 29.92 in1013.2 mb 0.00 in0.0 mm 0.00 in/hr0.0 mm/hr 0.00 in0.0 mm
03:16 PM 36.0°F2.2°C 33.4°F0.8°C 90% 1.0 mph W1.6 kmh W 8.0 mph12.9 kmh 29.91 in1012.9 mb 0.00 in0.0 mm 0.00 in/hr0.0 mm/hr 0.00 in0.0 mm
03:31 PM 35.9°F2.2°C 33.5°F0.8°C 91% 1.0 mph SE1.6 kmh SE 10.0 mph16.1 kmh 29.91 in1012.9 mb 0.00 in0.0 mm 0.00 in/hr0.0 mm/hr 0.00 in0.0 mm
03:46 PM 36.0°F2.2°C 33.6°F0.9°C 91% 6.0 mph S9.7 kmh S 9.0 mph14.5 kmh 29.92 in1013.2 mb 0.00 in0.0 mm 0.00 in/hr0.0 mm/hr 0.00 in0.0 mm
04:01 PM 35.9°F2.2°C 33.5°F0.8°C 91% 5.0 mph ENE8.0 kmh ENE 13.0 mph20.9 kmh 29.91 in1012.9 mb 0.01 in0.3 mm 0.01 in/hr0.3 mm/hr 0.01 in0.3 mm
04:16 PM 35.7°F2.1°C 33.6°F0.9°C 92% 2.0 mph SE3.2 kmh SE 9.0 mph14.5 kmh 29.90 in1012.5 mb 0.04 in1.0 mm 0.12 in/hr3.0 mm/hr 0.04 in1.0 mm
04:30 PM 35.7°F2.1°C 33.6°F0.9°C 92% 14.0 mph E22.5 kmh E 14.0 mph22.5 kmh 29.90 in1012.5 mb 0.04 in1.0 mm 0.00 in/hr0.0 mm/hr 0.04 in1.0 mm
04:46 PM 35.8°F2.1°C 33.4°F0.8°C 91% 2.0 mph WNW3.2 kmh WNW 13.0 mph20.9 kmh 29.89 in1012.2 mb 0.04 in1.0 mm 0.00 in/hr0.0 mm/hr 0.04 in1.0 mm
05:01 PM 35.5°F1.9°C 33.4°F0.8°C 92% 8.0 mph N12.9 kmh N 14.0 mph22.5 kmh 29.85 in1010.8 mb 0.04 in1.0 mm 0.00 in/hr0.0 mm/hr 0.04 in1.0 mm
05:16 PM 35.2°F1.8°C 33.4°F0.8°C 93% 4.0 mph ENE6.4 kmh ENE 10.0 mph16.1 kmh 29.84 in1010.5 mb 0.05 in1.3 mm 0.04 in/hr1.0 mm/hr 0.05 in1.3 mm
05:31 PM 34.8°F1.6°C 33.0°F0.6°C 93% 4.0 mph NW6.4 kmh NW 9.0 mph14.5 kmh 29.83 in1010.2 mb 0.03 in0.8 mm 0.00 in/hr0.0 mm/hr 0.05 in1.3 mm
05:45 PM 34.5°F1.4°C 32.7°F0.4°C 93% 7.0 mph E11.3 kmh E 16.0 mph25.7 kmh 29.83 in1010.2 mb 0.04 in1.0 mm 0.04 in/hr1.0 mm/hr 0.06 in1.5 mm
06:01 PM 34.8°F1.6°C 33.0°F0.6°C 93% 6.0 mph NNW9.7 kmh NNW 11.0 mph17.7 kmh 29.82 in1009.8 mb 0.04 in1.0 mm 0.00 in/hr0.0 mm/hr 0.06 in1.5 mm
06:16 PM 35.1°F1.7°C 33.0°F0.6°C 92% 3.0 mph N4.8 kmh N 13.0 mph20.9 kmh 29.83 in1010.2 mb 0.05 in1.3 mm 0.04 in/hr1.0 mm/hr 0.07 in1.8 mm
06:31 PM 35.3°F1.8°C 32.9°F0.5°C 91% 6.0 mph NNW9.7 kmh NNW 13.0 mph20.9 kmh 29.84 in1010.5 mb 0.03 in0.8 mm 0.00 in/hr0.0 mm/hr 0.07 in1.8 mm
06:46 PM 35.4°F1.9°C 33.0°F0.6°C 91% 2.0 mph NNW3.2 kmh NNW 8.0 mph12.9 kmh 29.85 in1010.8 mb 0.04 in1.0 mm 0.04 in/hr1.0 mm/hr 0.08 in2.0 mm
07:01 PM 34.9°F1.6°C 32.8°F0.4°C 92% 3.0 mph SE4.8 kmh SE 10.0 mph16.1 kmh 29.84 in1010.5 mb 0.02 in0.5 mm 0.00 in/hr0.0 mm/hr 0.08 in2.0 mm
07:16 PM 35.3°F1.8°C 32.7°F0.4°C 90% 6.0 mph NW9.7 kmh NW 11.0 mph17.7 kmh 29.85 in1010.8 mb 0.03 in0.8 mm 0.04 in/hr1.0 mm/hr 0.09 in2.3 mm
07:30 PM 35.4°F1.9°C 32.8°F0.4°C 90% 6.0 mph NNW9.7 kmh NNW 15.0 mph24.1 kmh 29.85 in1010.8 mb 0.02 in0.5 mm 0.00 in/hr0.0 mm/hr 0.09 in2.3 mm
07:45 PM 35.5°F1.9°C 32.6°F0.3°C 89% 2.0 mph NNE3.2 kmh NNE 14.0 mph22.5 kmh 29.85 in1010.8 mb 0.02 in0.5 mm 0.00 in/hr0.0 mm/hr 0.09 in2.3 mm
08:01 PM 35.4°F1.9°C 32.5°F0.3°C 89% 3.0 mph N4.8 kmh N 9.0 mph14.5 kmh 29.85 in1010.8 mb 0.01 in0.3 mm 0.00 in/hr0.0 mm/hr 0.09 in2.3 mm
08:15 PM 35.4°F1.9°C 32.2°F0.1°C 88% 4.0 mph NNW6.4 kmh NNW 13.0 mph20.9 kmh 29.85 in1010.8 mb 0.01 in0.3 mm 0.00 in/hr0.0 mm/hr 0.09 in2.3 mm
08:31 PM 35.3°F1.8°C 32.4°F0.2°C 89% 5.0 mph NE8.0 kmh NE 12.0 mph19.3 kmh 29.85 in1010.8 mb 0.00 in0.0 mm 0.00 in/hr0.0 mm/hr 0.09 in2.3 mm
08:45 PM 35.0°F1.7°C 32.6°F0.3°C 91% 7.0 mph N11.3 kmh N 11.0 mph17.7 kmh 29.84 in1010.5 mb 0.03 in0.8 mm 0.13 in/hr3.3 mm/hr 0.12 in3.0 mm
09:01 PM 34.1°F1.2°C 32.0°F0.0°C 92% 3.0 mph NW4.8 kmh NW 15.0 mph24.1 kmh 29.84 in1010.5 mb 0.03 in0.8 mm 0.00 in/hr0.0 mm/hr 0.12 in3.0 mm
09:16 PM 33.5°F0.8°C 31.7°F-0.2°C 93% 2.0 mph ENE3.2 kmh ENE 9.0 mph14.5 kmh 29.85 in1010.8 mb 0.03 in0.8 mm 0.00 in/hr0.0 mm/hr 0.12 in3.0 mm
09:31 PM 33.1°F0.6°C 31.6°F-0.2°C 94% 4.0 mph N6.4 kmh N 9.0 mph14.5 kmh 29.85 in1010.8 mb 0.03 in0.8 mm 0.00 in/hr0.0 mm/hr 0.12 in3.0 mm
09:45 PM 33.0°F0.6°C 31.5°F-0.3°C 94% 1.0 mph NNW1.6 kmh NNW 3.0 mph4.8 kmh 29.86 in1011.2 mb 0.03 in0.8 mm 0.00 in/hr0.0 mm/hr 0.12 in3.0 mm
10:01 PM 32.9°F0.5°C 31.6°F-0.2°C 95% 5.0 mph N8.0 kmh N 8.0 mph12.9 kmh 29.85 in1010.8 mb 0.00 in0.0 mm 0.00 in/hr0.0 mm/hr 0.12 in3.0 mm
10:15 PM 32.9°F0.5°C 31.4°F-0.3°C 94% 6.0 mph NNW9.7 kmh NNW 9.0 mph14.5 kmh 29.85 in1010.8 mb 0.00 in0.0 mm 0.00 in/hr0.0 mm/hr 0.12 in3.0 mm
10:30 PM 32.9°F0.5°C 31.4°F-0.3°C 94% 7.0 mph NW11.3 kmh NW 9.0 mph14.5 kmh 29.84 in1010.5 mb 0.00 in0.0 mm 0.00 in/hr0.0 mm/hr 0.12 in3.0 mm
10:46 PM 32.8°F0.4°C 31.3°F-0.4°C 94% 3.0 mph N4.8 kmh N 6.0 mph9.7 kmh 29.84 in1010.5 mb 0.00 in0.0 mm 0.00 in/hr0.0 mm/hr 0.12 in3.0 mm
11:01 PM 32.4°F0.2°C 31.1°F-0.5°C 95% 3.0 mph NNW4.8 kmh NNW 5.0 mph8.0 kmh 29.84 in1010.5 mb 0.00 in0.0 mm 0.00 in/hr0.0 mm/hr 0.12 in3.0 mm
11:16 PM 32.3°F0.2°C 31.0°F-0.6°C 95% 6.0 mph NW9.7 kmh NW 6.0 mph9.7 kmh 29.83 in1010.2 mb 0.01 in0.3 mm 0.04 in/hr1.0 mm/hr 0.13 in3.3 mm
11:31 PM 32.1°F0.1°C 30.8°F-0.7°C 95% 2.0 mph NW3.2 kmh NW 8.0 mph12.9 kmh 29.81 in1009.5 mb 0.01 in0.3 mm 0.00 in/hr0.0 mm/hr 0.13 in3.3 mm
11:45 PM 32.0°F0.0°C 30.5°F-0.8°C 94% 1.0 mph N1.6 kmh N 7.0 mph11.3 kmh 29.80 in1009.1 mb 0.01 in0.3 mm 0.00 in/hr0.0 mm/hr 0.13 in3.3 mm